createdAt,value
2018-03-24T00:00:41.239Z,39.60
2018-03-24T00:03:08.136Z,39.80
2018-03-24T00:05:35.118Z,40.10
2018-03-24T00:08:02.732Z,40.30
2018-03-24T00:10:29.666Z,40.20
2018-03-24T00:12:56.514Z,40.20
2018-03-24T00:15:23.408Z,40.50
2018-03-24T00:17:50.281Z,40.40
2018-03-24T00:20:18.008Z,40.40
2018-03-24T00:22:44.978Z,40.40
2018-03-24T00:25:11.891Z,40.20
2018-03-24T00:27:38.838Z,40.30
2018-03-24T00:30:05.785Z,40.60
2018-03-24T00:32:32.628Z,40.60
2018-03-24T00:34:59.577Z,40.60
2018-03-24T00:37:26.686Z,40.20
2018-03-24T00:39:54.390Z,40.60
2018-03-24T00:42:21.443Z,40.50
2018-03-24T00:44:48.492Z,40.70
2018-03-24T00:47:15.546Z,40.90
2018-03-24T00:49:42.591Z,41.00
2018-03-24T00:52:09.647Z,41.20
2018-03-24T00:54:36.585Z,40.70
2018-03-24T00:57:03.747Z,40.70
2018-03-24T00:59:30.797Z,41.00
2018-03-24T01:01:57.735Z,40.70
2018-03-24T01:04:24.682Z,40.90
2018-03-24T01:06:51.760Z,41.30
2018-03-24T01:09:19.396Z,42.30
2018-03-24T01:11:46.340Z,42.30
2018-03-24T01:14:13.188Z,42.40
2018-03-24T01:16:40.243Z,42.60
2018-03-24T01:19:07.287Z,42.70
2018-03-24T01:21:34.344Z,42.90
2018-03-24T01:24:01.385Z,42.90
2018-03-24T01:26:28.433Z,43.00
2018-03-24T01:28:55.490Z,43.00
2018-03-24T01:31:23.966Z,42.80
2018-03-24T01:33:50.921Z,42.80
2018-03-24T01:36:18.169Z,42.90
2018-03-24T01:38:45.216Z,43.20
2018-03-24T01:41:12.261Z,43.30
2018-03-24T01:43:39.213Z,43.40
2018-03-24T01:46:06.158Z,43.30
2018-03-24T01:48:33.219Z,43.30
2018-03-24T01:51:01.086Z,43.50
2018-03-24T01:53:41.031Z,43.50
2018-03-24T01:56:08.182Z,43.50
2018-03-24T01:58:35.243Z,43.50
2018-03-24T02:01:02.282Z,43.30
2018-03-24T02:03:29.100Z,43.60
2018-03-24T02:05:56.072Z,43.60
2018-03-24T02:08:23.123Z,44.50
2018-03-24T02:10:50.073Z,44.50
2018-03-24T02:13:17.125Z,44.50
2018-03-24T02:15:44.176Z,44.40
2018-03-24T02:18:11.113Z,44.40
2018-03-24T02:20:38.172Z,44.30
2018-03-24T02:23:05.110Z,44.50
2018-03-24T02:25:32.270Z,44.80
2018-03-24T02:27:59.211Z,44.80
2018-03-24T02:30:26.473Z,44.90
2018-03-24T02:32:53.528Z,44.80
2018-03-24T02:35:20.667Z,44.70
2018-03-24T02:37:47.713Z,44.80
2018-03-24T02:40:14.661Z,44.70
2018-03-24T02:42:41.608Z,44.80
2018-03-24T02:45:08.667Z,45.00
2018-03-24T02:47:35.718Z,45.10
2018-03-24T02:50:04.054Z,45.10
2018-03-24T02:52:30.992Z,45.00
2018-03-24T02:54:57.959Z,44.80
2018-03-24T02:57:24.842Z,44.70
2018-03-24T02:59:51.771Z,45.00
2018-03-24T03:02:18.651Z,45.20
2018-03-24T03:04:46.292Z,45.50
2018-03-24T03:07:13.207Z,45.40
2018-03-24T03:09:40.182Z,45.30
2018-03-24T03:12:07.047Z,45.10
2018-03-24T03:14:33.927Z,45.10
2018-03-24T03:17:00.772Z,45.20
2018-03-24T03:19:27.665Z,45.20
2018-03-24T03:21:54.643Z,45.20
2018-03-24T03:24:22.180Z,45.20
2018-03-24T03:26:49.217Z,45.20
2018-03-24T03:29:16.263Z,45.30
2018-03-24T03:31:45.160Z,45.20
2018-03-24T03:34:12.206Z,45.00
2018-03-24T03:36:39.275Z,44.80
2018-03-24T03:39:06.309Z,44.80
2018-03-24T03:41:33.465Z,45.40
2018-03-24T03:44:00.515Z,44.90
2018-03-24T03:46:27.563Z,44.90
2018-03-24T03:48:54.613Z,44.90
2018-03-24T03:51:21.654Z,44.90
2018-03-24T03:53:48.714Z,44.90
2018-03-24T03:56:17.288Z,44.90
2018-03-24T03:58:44.119Z,44.80
2018-03-24T04:01:10.978Z,44.80
2018-03-24T04:03:38.029Z,44.60
2018-03-24T04:06:05.189Z,44.60
2018-03-24T04:08:32.024Z,44.30
2018-03-24T04:10:58.994Z,44.20
2018-03-24T04:13:26.343Z,44.50
2018-03-24T04:15:53.377Z,44.40
2018-03-24T04:18:20.327Z,44.50
2018-03-24T04:20:47.479Z,44.40
2018-03-24T04:23:14.527Z,44.50
2018-03-24T04:25:41.479Z,44.50
2018-03-24T04:28:08.736Z,44.50
2018-03-24T04:30:35.682Z,44.40
2018-03-24T04:33:02.619Z,44.50
2018-03-24T04:35:29.567Z,44.50
2018-03-24T04:37:56.834Z,44.90
2018-03-24T04:40:23.846Z,44.80
2018-03-24T04:42:50.924Z,44.80
2018-03-24T04:45:17.981Z,45.00
2018-03-24T04:47:45.031Z,45.20
2018-03-24T04:50:11.865Z,45.20
2018-03-24T04:52:38.831Z,45.00
2018-03-24T04:55:05.869Z,45.10
2018-03-24T04:57:32.918Z,45.50
2018-03-24T04:59:59.963Z,45.50
2018-03-24T05:02:26.915Z,45.00
2018-03-24T05:04:53.965Z,45.10
2018-03-24T05:07:21.008Z,44.70
2018-03-24T05:09:48.065Z,44.70
2018-03-24T05:12:15.107Z,45.00
2018-03-24T05:14:42.062Z,45.00
2018-03-24T05:17:08.999Z,45.60
2018-03-24T05:19:36.053Z,45.10
2018-03-24T05:22:02.857Z,45.60
2018-03-24T05:24:29.951Z,45.90
2018-03-24T05:26:56.993Z,46.10
2018-03-24T05:29:24.043Z,46.30
2018-03-24T05:31:50.885Z,46.50
2018-03-24T05:34:17.944Z,46.50
2018-03-24T05:36:44.992Z,46.60
2018-03-24T05:39:12.042Z,46.60
2018-03-24T05:41:39.189Z,46.40
2018-03-24T05:44:06.134Z,46.40
2018-03-24T05:46:33.186Z,46.40
2018-03-24T05:49:00.131Z,46.60
2018-03-24T05:51:27.187Z,46.70
2018-03-24T05:53:54.023Z,46.70
2018-03-24T05:56:20.977Z,46.70
2018-03-24T05:58:48.029Z,47.20
2018-03-24T06:01:15.078Z,47.50
2018-03-24T06:03:42.219Z,47.30
2018-03-24T06:06:09.277Z,47.40
2018-03-24T06:08:36.091Z,47.30
2018-03-24T06:11:03.165Z,47.20
2018-03-24T06:13:30.212Z,47.40
2018-03-24T06:15:57.144Z,47.60
2018-03-24T06:18:24.209Z,48.10
2018-03-24T06:20:51.361Z,48.10
2018-03-24T06:23:18.420Z,48.20
2018-03-24T06:25:45.470Z,48.30
2018-03-24T06:28:12.622Z,48.30
2018-03-24T06:30:44.886Z,47.90
2018-03-24T06:33:11.940Z,47.80
2018-03-24T06:35:39.096Z,48.10
2018-03-24T06:38:06.271Z,48.30
2018-03-24T06:40:34.115Z,48.10
2018-03-24T06:43:01.157Z,48.00
2018-03-24T06:45:28.413Z,48.10
2018-03-24T06:47:55.469Z,48.20
2018-03-24T06:50:22.544Z,48.40
2018-03-24T06:52:50.489Z,48.20
2018-03-24T06:55:17.529Z,48.10
2018-03-24T06:57:44.588Z,48.10
2018-03-24T07:00:11.630Z,48.30
2018-03-24T07:02:38.676Z,48.50
2018-03-24T07:05:05.726Z,48.60
2018-03-24T07:07:32.601Z,48.30
2018-03-24T07:10:00.449Z,48.50
2018-03-24T07:12:27.395Z,48.40
2018-03-24T07:14:54.347Z,47.60
2018-03-24T07:17:21.383Z,47.30
2018-03-24T07:19:48.442Z,48.00
2018-03-24T07:22:15.416Z,48.50
2018-03-24T07:24:43.173Z,50.60
2018-03-24T07:27:10.921Z,51.20
2018-03-24T07:29:37.965Z,50.80
2018-03-24T07:32:05.127Z,51.30
2018-03-24T07:34:32.882Z,50.20
2018-03-24T07:36:59.827Z,50.10
2018-03-24T07:39:26.876Z,48.70
2018-03-24T07:41:53.927Z,48.50
2018-03-24T07:44:20.872Z,48.00
2018-03-24T07:46:47.823Z,46.70
2018-03-24T07:49:15.011Z,46.40
2018-03-24T07:51:42.747Z,46.60
2018-03-24T07:54:09.693Z,46.50
2018-03-24T07:56:36.632Z,46.60
2018-03-24T07:59:03.682Z,47.00
2018-03-24T08:01:30.835Z,46.70
2018-03-24T08:03:57.884Z,46.60
2018-03-24T08:06:24.937Z,46.40
2018-03-24T08:08:51.864Z,46.30
2018-03-24T08:11:25.808Z,45.80
2018-03-24T08:13:52.849Z,45.80
2018-03-24T08:16:19.897Z,45.60
2018-03-24T08:18:46.838Z,45.40
2018-03-24T08:21:13.701Z,46.10
2018-03-24T08:23:41.653Z,45.20
2018-03-24T08:26:08.703Z,45.60
2018-03-24T08:28:35.756Z,45.80
2018-03-24T08:31:02.651Z,45.80
2018-03-24T08:33:29.651Z,44.80
2018-03-24T08:35:56.697Z,44.80
2018-03-24T08:38:23.761Z,45.20
2018-03-24T08:40:50.805Z,44.50
2018-03-24T08:43:17.853Z,44.10
2018-03-24T08:45:45.608Z,43.00
2018-03-24T08:48:12.560Z,43.10
2018-03-24T08:50:39.716Z,43.00
2018-03-24T08:53:06.763Z,42.10
2018-03-24T08:55:34.627Z,40.60
2018-03-24T08:58:01.787Z,40.60
2018-03-24T09:00:29.135Z,41.70
2018-03-24T09:02:56.185Z,43.30
2018-03-24T09:05:23.437Z,43.40
2018-03-24T09:07:52.376Z,43.10
2018-03-24T09:10:21.027Z,43.30
2018-03-24T09:12:48.888Z,43.30
2018-03-24T09:15:22.730Z,42.50
2018-03-24T09:17:49.936Z,40.30
2018-03-24T09:20:17.016Z,40.60
2018-03-24T09:22:45.493Z,36.20
2018-03-24T09:25:12.532Z,36.10
2018-03-24T09:27:39.478Z,38.00
2018-03-24T09:30:06.640Z,35.70
2018-03-24T09:32:33.580Z,34.80
2018-03-24T09:35:00.853Z,34.10
2018-03-24T09:37:27.983Z,30.50
2018-03-24T09:39:54.844Z,29.90
2018-03-24T09:42:21.758Z,30.10
2018-03-24T09:44:48.657Z,30.60
2018-03-24T09:47:15.547Z,29.20
2018-03-24T09:49:42.619Z,29.20
2018-03-24T09:52:09.399Z,28.30
2018-03-24T09:54:37.239Z,28.50
2018-03-24T09:57:04.123Z,28.40
2018-03-24T09:59:31.841Z,24.90
2018-03-24T10:01:58.890Z,24.90
2018-03-24T10:04:25.946Z,24.40
2018-03-24T10:06:52.781Z,24.20
2018-03-24T10:09:19.736Z,24.30
2018-03-24T10:11:46.514Z,23.60
2018-03-24T10:14:14.470Z,23.80
2018-03-24T10:16:42.137Z,24.20
2018-03-24T10:19:08.963Z,24.10
2018-03-24T10:24:51.699Z,23.10
2018-03-24T10:27:18.622Z,23.50
2018-03-24T10:29:45.693Z,22.90
2018-03-24T10:32:12.635Z,22.30
2018-03-24T10:34:39.652Z,22.70
2018-03-24T10:37:06.532Z,20.90
2018-03-24T10:39:33.500Z,21.20
2018-03-24T10:42:01.353Z,22.00
2018-03-24T10:44:28.295Z,21.70
2018-03-24T10:46:55.341Z,21.50
2018-03-24T10:49:22.307Z,21.10
2018-03-24T10:51:50.779Z,20.90
2018-03-24T10:54:17.574Z,20.90
2018-03-24T10:56:45.233Z,20.10
2018-03-24T10:59:12.062Z,20.10
2018-03-24T11:01:39.755Z,19.10
2018-03-24T11:04:06.752Z,19.00
2018-03-24T11:06:33.745Z,19.30
2018-03-24T11:09:00.739Z,21.20
2018-03-24T11:11:30.110Z,20.10
2018-03-24T11:13:56.956Z,19.70
2018-03-24T11:16:23.900Z,21.10
2018-03-24T11:18:50.924Z,21.90
2018-03-24T11:21:17.863Z,20.10
2018-03-24T11:23:45.526Z,20.00
2018-03-24T11:26:13.137Z,20.20
2018-03-24T11:28:40.253Z,20.20
2018-03-24T11:31:07.134Z,19.70
2018-03-24T11:33:34.084Z,19.80
2018-03-24T11:36:01.044Z,19.50
2018-03-24T11:38:27.937Z,19.40
2018-03-24T11:40:54.876Z,20.40
2018-03-24T11:43:22.580Z,21.40
2018-03-24T11:45:49.768Z,21.40
2018-03-24T11:48:16.579Z,20.40
2018-03-24T11:50:44.369Z,19.10
2018-03-24T11:53:11.410Z,19.00
2018-03-24T11:55:38.461Z,19.70
2018-03-24T11:58:05.519Z,19.40
2018-03-24T12:00:32.565Z,20.00
2018-03-24T12:02:59.611Z,20.50
2018-03-24T12:05:26.770Z,19.40
2018-03-24T12:07:53.811Z,19.80
2018-03-24T12:10:20.889Z,20.10
2018-03-24T12:12:47.910Z,20.60
2018-03-24T12:15:46.828Z,20.50
2018-03-24T12:18:13.862Z,20.60
2018-03-24T12:20:41.151Z,19.60
2018-03-24T12:23:08.926Z,20.20
2018-03-24T12:25:35.819Z,20.10
2018-03-24T12:28:02.974Z,19.60
2018-03-24T12:30:30.162Z,19.30
2018-03-24T12:32:57.162Z,19.70
2018-03-24T12:35:24.063Z,18.90
2018-03-24T12:37:51.734Z,18.60
2018-03-24T12:40:18.837Z,18.70
2018-03-24T12:42:45.886Z,19.50
2018-03-24T12:45:13.044Z,19.30
2018-03-24T12:47:39.983Z,18.70
2018-03-24T12:50:07.035Z,20.00
2018-03-24T12:52:34.197Z,18.40
2018-03-24T12:55:01.949Z,18.40
2018-03-24T12:57:28.937Z,18.40
2018-03-24T12:59:56.843Z,17.90
2018-03-24T13:02:23.701Z,17.90
2018-03-24T13:04:50.666Z,19.30
2018-03-24T13:07:17.813Z,18.30
2018-03-24T13:09:44.717Z,19.60
2018-03-24T13:12:11.715Z,19.30
2018-03-24T13:15:10.410Z,19.30
2018-03-24T13:17:38.279Z,18.20
2018-03-24T13:20:05.259Z,18.20
2018-03-24T13:22:33.084Z,19.10
2018-03-24T13:25:00.857Z,18.00
2018-03-24T13:27:27.764Z,18.00
2018-03-24T13:29:54.742Z,19.00
2018-03-24T13:32:21.799Z,19.40
2018-03-24T13:34:48.850Z,19.60
2018-03-24T13:37:15.894Z,19.60
2018-03-24T13:39:42.940Z,18.90
2018-03-24T13:42:10.006Z,19.10
2018-03-24T13:44:37.066Z,18.90
2018-03-24T13:47:04.189Z,19.10
2018-03-24T13:49:31.248Z,19.40
2018-03-24T13:51:58.186Z,19.30
2018-03-24T13:54:25.239Z,19.80
2018-03-24T13:56:52.185Z,19.50
2018-03-24T13:59:19.241Z,20.30
2018-03-24T14:01:46.116Z,21.60
2018-03-24T14:04:14.050Z,20.70
2018-03-24T14:06:41.133Z,20.60
2018-03-24T14:09:08.764Z,21.20
2018-03-24T14:11:35.706Z,21.20
2018-03-24T14:14:02.656Z,21.30
2018-03-24T14:16:29.718Z,20.70
2018-03-24T14:18:56.761Z,20.30
2018-03-24T14:21:23.819Z,20.50
2018-03-24T14:23:52.423Z,20.10
2018-03-24T14:26:20.277Z,20.70
2018-03-24T14:28:47.206Z,20.60
2018-03-24T14:31:14.153Z,20.20
2018-03-24T14:33:41.937Z,20.40
2018-03-24T14:36:08.968Z,20.40
2018-03-24T14:38:36.020Z,21.00
2018-03-24T14:41:03.074Z,21.30
2018-03-24T14:43:30.149Z,21.90
2018-03-24T14:45:57.275Z,21.70
2018-03-24T14:48:24.426Z,21.80
2018-03-24T14:50:51.469Z,21.90
2018-03-24T14:53:18.536Z,22.10
2018-03-24T14:55:45.503Z,22.70
2018-03-24T14:58:13.132Z,22.60
2018-03-24T15:00:40.109Z,22.50
2018-03-24T15:03:07.234Z,22.80
2018-03-24T15:05:34.208Z,22.20
2018-03-24T15:08:01.950Z,22.00
2018-03-24T15:10:29.197Z,21.90
2018-03-24T15:12:56.356Z,21.90
2018-03-24T15:15:56.015Z,22.10
2018-03-24T15:18:23.119Z,21.50
2018-03-24T15:20:50.096Z,21.20
2018-03-24T15:23:17.834Z,21.50
2018-03-24T15:25:44.931Z,21.40
2018-03-24T15:28:12.642Z,20.70
2018-03-24T15:30:51.681Z,20.70
2018-03-24T15:33:30.388Z,20.70
2018-03-24T15:36:09.414Z,21.10
2018-03-24T15:38:36.270Z,22.80
2018-03-24T15:41:03.429Z,22.70
2018-03-24T15:43:30.323Z,22.10
2018-03-24T15:45:57.222Z,21.40
2018-03-24T15:48:24.160Z,22.40
2018-03-24T15:50:51.319Z,22.00
2018-03-24T15:53:18.369Z,21.80
2018-03-24T15:55:45.270Z,22.00
2018-03-24T15:58:12.326Z,22.40
2018-03-24T16:00:39.326Z,22.60
2018-03-24T16:03:06.385Z,23.00
2018-03-24T16:05:34.176Z,22.50
2018-03-24T16:08:01.084Z,22.50
2018-03-24T16:10:28.913Z,22.80
2018-03-24T16:12:56.800Z,22.90
2018-03-24T16:15:30.949Z,22.90
2018-03-24T16:17:58.987Z,23.10
2018-03-24T16:20:26.398Z,23.20
2018-03-24T16:22:54.668Z,23.90
2018-03-24T16:25:22.686Z,23.60
2018-03-24T16:27:49.968Z,23.60
2018-03-24T16:30:17.472Z,23.20
2018-03-24T16:32:44.925Z,23.10
2018-03-24T16:35:12.689Z,23.70
2018-03-24T16:37:40.810Z,23.90
2018-03-24T16:40:08.616Z,24.00
2018-03-24T16:42:36.678Z,24.60
2018-03-24T16:45:03.958Z,24.60
2018-03-24T16:47:31.215Z,24.70
2018-03-24T16:49:58.976Z,26.00
2018-03-24T16:52:27.291Z,24.70
2018-03-24T16:54:55.637Z,24.50
2018-03-24T16:57:23.121Z,24.50
2018-03-24T16:59:50.659Z,24.50
2018-03-24T17:02:17.966Z,24.10
2018-03-24T17:04:45.343Z,24.60
2018-03-24T17:07:12.562Z,24.90
2018-03-24T17:09:39.979Z,24.90
2018-03-24T17:12:08.629Z,25.10
2018-03-24T17:14:47.256Z,25.00
2018-03-24T17:17:14.847Z,25.40
2018-03-24T17:19:42.344Z,25.40
2018-03-24T17:22:09.666Z,25.30
2018-03-24T17:24:37.989Z,26.40
2018-03-24T17:27:05.686Z,26.30
2018-03-24T17:29:33.613Z,27.20
2018-03-24T17:32:00.882Z,27.20
2018-03-24T17:34:27.935Z,27.50
2018-03-24T17:36:55.490Z,27.60
2018-03-24T17:39:23.839Z,27.20
2018-03-24T17:41:51.293Z,27.20
2018-03-24T17:44:19.666Z,27.00
2018-03-24T17:46:48.044Z,26.50
2018-03-24T17:49:15.910Z,27.50
2018-03-24T17:51:43.781Z,28.10
2018-03-24T17:54:11.858Z,28.30
2018-03-24T17:56:40.340Z,29.00
2018-03-24T17:59:08.449Z,29.80
2018-03-24T18:01:35.976Z,29.80
2018-03-24T18:04:03.982Z,30.20
2018-03-24T18:06:31.403Z,30.20
2018-03-24T18:08:59.784Z,31.30
2018-03-24T18:11:28.328Z,31.40
2018-03-24T18:13:56.044Z,31.40
2018-03-24T18:19:36.112Z,32.10
2018-03-24T18:22:04.501Z,31.70
2018-03-24T18:24:33.443Z,31.60
2018-03-24T18:27:00.631Z,31.60
2018-03-24T18:29:28.891Z,31.80
2018-03-24T18:31:57.093Z,31.90
2018-03-24T18:34:25.479Z,32.50
2018-03-24T18:36:53.568Z,33.30
2018-03-24T18:39:21.104Z,33.20
2018-03-24T18:41:49.222Z,32.70
2018-03-24T18:44:16.956Z,32.70
2018-03-24T18:46:45.232Z,30.40
2018-03-24T18:49:13.715Z,30.70
2018-03-24T18:51:41.792Z,31.10
2018-03-24T18:54:09.450Z,30.90
2018-03-24T18:56:37.727Z,32.30
2018-03-24T18:59:06.163Z,32.30
2018-03-24T19:01:33.583Z,32.20
2018-03-24T19:04:01.640Z,33.00
2018-03-24T19:06:29.960Z,33.40
2018-03-24T19:08:58.245Z,33.80
2018-03-24T19:11:28.907Z,33.50
2018-03-24T19:13:56.176Z,33.50
2018-03-24T19:19:37.094Z,33.20
2018-03-24T19:22:04.743Z,34.00
2018-03-24T19:24:32.513Z,34.10
2018-03-24T19:27:00.722Z,34.40
2018-03-24T19:29:29.066Z,33.70
2018-03-24T19:31:57.357Z,33.60
2018-03-24T19:34:25.476Z,33.90
2018-03-24T19:36:53.088Z,33.90
2018-03-24T19:39:22.201Z,34.40
2018-03-24T19:41:50.464Z,34.60
2018-03-24T19:44:18.938Z,34.60
2018-03-24T19:46:47.344Z,34.90
2018-03-24T19:49:15.804Z,35.10
2018-03-24T19:51:44.124Z,35.40
2018-03-24T19:54:12.364Z,35.50
2018-03-24T19:56:40.652Z,35.90
2018-03-24T19:59:08.930Z,35.90
2018-03-24T20:01:36.492Z,35.90
2018-03-24T20:04:03.950Z,35.80
2018-03-24T20:06:32.320Z,35.50
2018-03-24T20:09:00.638Z,35.40
2018-03-24T20:11:28.278Z,35.20
2018-03-24T20:13:56.036Z,35.00
2018-03-24T20:19:36.514Z,34.70
2018-03-24T20:22:04.905Z,34.70
2018-03-24T20:24:33.175Z,34.80
2018-03-24T20:27:01.484Z,35.00
2018-03-24T20:29:29.945Z,35.10
2018-03-24T20:31:58.317Z,35.10
2018-03-24T20:34:26.229Z,35.10
2018-03-24T20:36:53.806Z,35.10
2018-03-24T20:39:20.931Z,35.40
2018-03-24T20:41:48.356Z,35.50
2018-03-24T20:44:16.735Z,35.80
2018-03-24T20:46:45.222Z,35.40
2018-03-24T20:49:13.599Z,35.50
2018-03-24T20:51:42.092Z,35.50
2018-03-24T20:54:10.459Z,35.40
2018-03-24T20:56:38.860Z,35.30
2018-03-24T20:59:06.412Z,35.20
2018-03-24T21:01:34.674Z,35.20
2018-03-24T21:04:02.968Z,35.00
2018-03-24T21:06:31.130Z,35.20
2018-03-24T21:08:59.089Z,35.30
2018-03-24T21:11:29.709Z,35.00
2018-03-24T21:13:56.761Z,34.80
2018-03-24T21:16:34.395Z,34.70
2018-03-24T21:19:02.029Z,34.50
2018-03-24T21:21:29.082Z,34.50
2018-03-24T21:23:56.149Z,34.50
2018-03-24T21:29:24.830Z,34.90
2018-03-24T21:31:52.590Z,35.10
2018-03-24T21:34:21.705Z,35.00
2018-03-24T21:36:48.636Z,35.00
2018-03-24T21:39:15.784Z,35.20
2018-03-24T21:41:43.281Z,35.60
2018-03-24T21:44:11.932Z,36.10
2018-03-24T21:46:38.905Z,36.10
2018-03-24T21:49:06.539Z,36.20
2018-03-24T21:51:33.692Z,36.00
2018-03-24T21:54:01.907Z,36.10
2018-03-24T21:56:29.817Z,36.50
2018-03-24T21:58:56.790Z,36.70
2018-03-24T22:01:23.733Z,36.80
2018-03-24T22:03:50.791Z,36.80
2018-03-24T22:06:18.862Z,36.80
2018-03-24T22:08:45.805Z,36.70
2018-03-24T22:11:12.648Z,36.80
2018-03-24T22:13:39.594Z,37.20
2018-03-24T22:19:11.786Z,37.80
2018-03-24T22:21:38.840Z,38.10
2018-03-24T22:24:05.892Z,38.20
2018-03-24T22:26:32.838Z,38.40
2018-03-24T22:28:59.987Z,38.30
2018-03-24T22:31:26.981Z,38.40
2018-03-24T22:33:54.708Z,39.20
2018-03-24T22:36:21.861Z,39.10
2018-03-24T22:38:50.166Z,39.00
2018-03-24T22:41:17.190Z,39.10
2018-03-24T22:43:44.435Z,39.10
2018-03-24T22:46:11.385Z,39.00
2018-03-24T22:48:38.436Z,39.10
2018-03-24T22:51:05.592Z,39.10
2018-03-24T22:53:32.537Z,38.70
2018-03-24T22:55:59.378Z,38.60
2018-03-24T22:58:26.321Z,38.50
2018-03-24T23:00:53.389Z,38.50
2018-03-24T23:03:20.319Z,38.10
2018-03-24T23:05:47.263Z,37.90
2018-03-24T23:08:15.093Z,37.90
2018-03-24T23:10:43.755Z,37.50
2018-03-24T23:13:12.442Z,37.60
2018-03-24T23:15:40.284Z,37.60
2018-03-24T23:18:07.333Z,37.60
2018-03-24T23:20:34.179Z,37.80
2018-03-24T23:23:01.222Z,37.80
2018-03-24T23:25:28.165Z,38.00
2018-03-24T23:27:55.326Z,38.00
2018-03-24T23:30:22.470Z,37.80
2018-03-24T23:32:49.314Z,37.70
2018-03-24T23:56:10.324Z,37.80
2018-03-24T23:58:37.264Z,38.00
